createdAt,value
2018-06-10T00:00:06.304Z,6.50
2018-06-10T00:01:06.307Z,7.80
2018-06-10T00:02:06.312Z,6.90
2018-06-10T00:03:06.317Z,7.50
2018-06-10T00:04:06.322Z,6.50
2018-06-10T00:05:06.328Z,6.00
2018-06-10T00:06:06.333Z,8.00
2018-06-10T00:07:06.337Z,7.90
2018-06-10T00:08:06.344Z,7.90
2018-06-10T00:09:06.348Z,6.90
2018-06-10T00:10:06.352Z,8.00
2018-06-10T00:11:06.359Z,7.60
2018-06-10T00:12:06.365Z,8.30
2018-06-10T00:13:06.369Z,7.30
2018-06-10T00:14:06.376Z,6.70
2018-06-10T00:15:06.381Z,6.90
2018-06-10T00:16:06.386Z,7.70
2018-06-10T00:17:06.394Z,6.70
2018-06-10T00:18:06.396Z,7.50
2018-06-10T00:19:06.402Z,6.30
2018-06-10T00:20:06.407Z,6.50
2018-06-10T00:21:06.411Z,7.40
2018-06-10T00:22:06.416Z,7.10
2018-06-10T00:23:06.422Z,7.70
2018-06-10T00:24:06.428Z,7.10
2018-06-10T00:25:06.433Z,6.90
2018-06-10T00:26:06.438Z,7.50
2018-06-10T00:27:06.445Z,7.50
2018-06-10T00:28:06.448Z,7.20
2018-06-10T00:29:06.453Z,7.70
2018-06-10T00:30:06.458Z,6.90
2018-06-10T00:31:06.464Z,7.30
2018-06-10T00:32:06.470Z,7.90
2018-06-10T00:33:06.474Z,7.70
2018-06-10T00:34:06.479Z,7.00
2018-06-10T00:35:06.485Z,8.40
2018-06-10T00:36:06.491Z,8.20
2018-06-10T00:37:06.495Z,7.40
2018-06-10T00:38:06.501Z,8.00
2018-06-10T00:39:06.507Z,7.10
2018-06-10T00:40:06.510Z,7.10
2018-06-10T00:41:06.517Z,8.40
2018-06-10T00:42:06.523Z,7.90
2018-06-10T00:43:06.527Z,7.70
2018-06-10T00:44:06.533Z,8.20
2018-06-10T00:45:06.538Z,7.90
2018-06-10T00:46:06.545Z,6.60
2018-06-10T00:47:06.548Z,8.30
2018-06-10T00:48:06.557Z,7.40
2018-06-10T00:49:06.559Z,7.70
2018-06-10T00:50:06.564Z,7.60
2018-06-10T00:51:06.570Z,8.10
2018-06-10T00:52:06.576Z,8.60
2018-06-10T00:53:06.580Z,8.10
2018-06-10T00:54:06.586Z,7.70
2018-06-10T00:55:06.592Z,8.50
2018-06-10T00:56:06.598Z,8.50
2018-06-10T00:57:06.600Z,7.50
2018-06-10T00:58:06.606Z,7.90
2018-06-10T00:59:06.613Z,8.90
2018-06-10T01:00:06.619Z,8.70
2018-06-10T01:01:06.623Z,8.60
2018-06-10T01:02:06.628Z,8.30
2018-06-10T01:03:06.634Z,7.80
2018-06-10T01:04:06.639Z,7.50
2018-06-10T01:05:06.644Z,8.20
2018-06-10T01:06:06.650Z,8.10
2018-06-10T01:07:06.656Z,8.30
2018-06-10T01:08:06.661Z,8.40
2018-06-10T01:09:06.732Z,8.00
2018-06-10T01:10:06.671Z,7.80
2018-06-10T01:11:06.679Z,9.50
2018-06-10T01:12:06.682Z,9.40
2018-06-10T01:13:06.686Z,8.20
2018-06-10T01:14:06.693Z,8.70
2018-06-10T01:15:06.697Z,8.90
2018-06-10T01:16:06.703Z,9.60
2018-06-10T01:17:06.708Z,8.90
2018-06-10T01:18:06.712Z,8.10
2018-06-10T01:19:06.717Z,9.40
2018-06-10T01:20:06.723Z,9.60
2018-06-10T01:21:06.727Z,9.20
2018-06-10T01:22:08.735Z,9.00
2018-06-10T01:23:06.739Z,9.30
2018-06-10T01:24:06.743Z,9.80
2018-06-10T01:25:06.749Z,8.70
2018-06-10T01:26:06.753Z,8.70
2018-06-10T01:27:06.758Z,9.40
2018-06-10T01:28:06.764Z,10.00
2018-06-10T01:29:06.768Z,9.40
2018-06-10T01:30:06.773Z,10.30
2018-06-10T01:31:06.780Z,9.70
2018-06-10T01:32:06.783Z,10.10
2018-06-10T01:33:06.790Z,9.40
2018-06-10T01:34:06.793Z,8.80
2018-06-10T01:35:06.799Z,9.80
2018-06-10T01:36:06.805Z,9.20
2018-06-10T01:37:06.808Z,8.80
2018-06-10T01:38:06.814Z,8.90
2018-06-10T01:39:06.819Z,10.20
2018-06-10T01:40:06.824Z,9.70
2018-06-10T01:41:06.828Z,10.50
2018-06-10T01:42:06.833Z,9.30
2018-06-10T01:43:06.838Z,10.00
2018-06-10T01:44:06.844Z,10.40
2018-06-10T01:45:06.849Z,9.80
2018-06-10T01:46:06.854Z,9.50
2018-06-10T01:47:06.859Z,9.30
2018-06-10T01:48:06.866Z,8.70
2018-06-10T01:49:06.868Z,9.60
2018-06-10T01:50:06.873Z,10.50
2018-06-10T01:51:06.878Z,10.40
2018-06-10T01:52:06.884Z,10.50
2018-06-10T01:53:06.887Z,9.90
2018-06-10T01:54:06.893Z,10.50
2018-06-10T01:55:06.898Z,9.90
2018-06-10T01:56:06.903Z,10.10
2018-06-10T01:57:06.908Z,9.30
2018-06-10T01:58:06.914Z,10.40
2018-06-10T01:59:06.917Z,11.70
2018-06-10T02:00:06.922Z,10.90
2018-06-10T02:01:06.927Z,10.70
2018-06-10T02:02:06.931Z,10.00
2018-06-10T02:03:06.936Z,11.40
2018-06-10T02:04:06.942Z,10.90
2018-06-10T02:05:06.945Z,11.50
2018-06-10T02:06:06.949Z,11.20
2018-06-10T02:07:06.955Z,11.40
2018-06-10T02:08:06.958Z,11.30
2018-06-10T02:09:06.963Z,11.00
2018-06-10T02:10:06.968Z,10.20
2018-06-10T02:11:06.972Z,11.10
2018-06-10T02:12:06.978Z,10.70
2018-06-10T02:13:06.987Z,11.10
2018-06-10T02:14:06.987Z,12.70
2018-06-10T02:15:06.998Z,11.20
2018-06-10T02:16:06.996Z,11.40
2018-06-10T02:17:06.999Z,11.20
2018-06-10T02:18:07.004Z,10.50
2018-06-10T02:19:07.015Z,9.80
2018-06-10T02:20:07.013Z,10.10
2018-06-10T02:21:07.024Z,9.80
2018-06-10T02:22:07.021Z,10.60
2018-06-10T02:23:07.031Z,10.70
2018-06-10T02:24:07.031Z,10.80
2018-06-10T02:25:07.041Z,10.80
2018-06-10T02:26:07.040Z,10.30
2018-06-10T02:27:07.051Z,10.70
2018-06-10T02:28:07.048Z,10.70
2018-06-10T02:29:07.060Z,11.50
2018-06-10T02:30:07.056Z,13.20
2018-06-10T02:31:07.061Z,12.80
2018-06-10T02:32:07.064Z,12.40
2018-06-10T02:33:07.069Z,11.60
2018-06-10T02:34:07.073Z,12.00
2018-06-10T02:35:07.078Z,11.60
2018-06-10T02:36:07.082Z,11.50
2018-06-10T02:37:07.085Z,11.60
2018-06-10T02:38:07.090Z,11.70
2018-06-10T02:39:07.093Z,12.00
2018-06-10T02:40:07.099Z,12.70
2018-06-10T02:41:07.101Z,12.90
2018-06-10T02:42:07.106Z,11.60
2018-06-10T02:43:07.110Z,12.70
2018-06-10T02:44:07.116Z,13.00
2018-06-10T02:45:07.118Z,12.20
2018-06-10T02:46:07.122Z,12.90
2018-06-10T02:47:07.126Z,11.60
2018-06-10T02:48:07.135Z,11.60
2018-06-10T02:49:07.136Z,11.30
2018-06-10T02:50:07.138Z,11.50
2018-06-10T02:51:07.143Z,11.50
2018-06-10T02:52:07.147Z,11.40
2018-06-10T02:53:07.154Z,12.10
2018-06-10T02:54:07.155Z,11.80
2018-06-10T02:55:07.210Z,12.40
2018-06-10T02:56:07.162Z,11.90
2018-06-10T02:57:07.168Z,12.70
2018-06-10T02:58:07.170Z,12.80
2018-06-10T02:59:07.175Z,10.80
2018-06-10T03:00:07.180Z,11.90
2018-06-10T03:01:07.187Z,11.70
2018-06-10T03:02:07.203Z,11.70
2018-06-10T03:03:07.191Z,10.20
2018-06-10T03:04:07.195Z,11.10
2018-06-10T03:05:07.198Z,10.90
2018-06-10T03:06:07.201Z,11.20
2018-06-10T03:07:07.208Z,11.60
2018-06-10T03:08:07.211Z,12.40
2018-06-10T03:09:07.212Z,11.30
2018-06-10T03:10:07.217Z,11.00
2018-06-10T03:11:07.221Z,12.10
2018-06-10T03:12:07.225Z,11.20
2018-06-10T03:13:07.228Z,11.70
2018-06-10T03:14:07.232Z,11.20
2018-06-10T03:15:07.236Z,11.80
2018-06-10T03:16:07.240Z,12.10
2018-06-10T03:17:07.246Z,12.10
2018-06-10T03:18:07.248Z,13.20
2018-06-10T03:19:07.250Z,12.00
2018-06-10T03:20:07.255Z,12.30
2018-06-10T03:21:07.257Z,10.90
2018-06-10T03:22:07.260Z,11.30
2018-06-10T03:23:07.265Z,11.80
2018-06-10T03:24:07.268Z,11.20
2018-06-10T03:25:07.272Z,11.40
2018-06-10T03:26:07.275Z,11.50
2018-06-10T03:27:07.280Z,11.90
2018-06-10T03:28:07.284Z,11.70
2018-06-10T03:29:07.287Z,12.00
2018-06-10T03:30:07.290Z,10.30
2018-06-10T03:31:07.298Z,11.90
2018-06-10T03:32:07.298Z,12.00
2018-06-10T03:33:07.300Z,11.40
2018-06-10T03:34:07.304Z,11.70
2018-06-10T03:35:07.309Z,11.90
2018-06-10T03:36:07.313Z,11.30
2018-06-10T03:37:07.315Z,11.70
2018-06-10T03:38:07.320Z,12.50
2018-06-10T03:39:07.323Z,12.40
2018-06-10T03:40:07.327Z,12.00
2018-06-10T03:41:07.331Z,13.40
2018-06-10T03:42:07.333Z,13.50
2018-06-10T03:43:07.338Z,13.40
2018-06-10T03:44:07.340Z,11.30
2018-06-10T03:45:07.343Z,11.50
2018-06-10T03:46:07.348Z,10.80
2018-06-10T03:47:07.351Z,10.90
2018-06-10T03:48:07.355Z,11.10
2018-06-10T03:49:07.358Z,10.50
2018-06-10T03:50:07.361Z,11.00
2018-06-10T03:51:07.365Z,9.90
2018-06-10T03:52:07.368Z,9.40
2018-06-10T03:53:07.371Z,8.90
2018-06-10T03:54:07.379Z,9.60
2018-06-10T03:55:07.380Z,9.30
2018-06-10T03:56:07.382Z,7.80
2018-06-10T03:57:07.385Z,9.20
2018-06-10T03:58:07.389Z,8.20
2018-06-10T03:59:07.392Z,9.10
2018-06-10T04:00:07.396Z,10.40
2018-06-10T04:01:07.399Z,10.60
2018-06-10T04:02:07.402Z,10.20
2018-06-10T04:03:07.406Z,10.70
2018-06-10T04:04:07.410Z,10.10
2018-06-10T04:05:07.412Z,10.70
2018-06-10T04:06:07.418Z,11.00
2018-06-10T04:07:07.419Z,10.00
2018-06-10T04:08:07.422Z,9.90
2018-06-10T04:09:07.427Z,10.90
2018-06-10T04:10:07.430Z,11.70
2018-06-10T04:11:07.434Z,11.10
2018-06-10T04:12:07.441Z,10.90
2018-06-10T04:13:07.441Z,12.60
2018-06-10T04:14:07.445Z,11.00
2018-06-10T04:15:07.448Z,10.70
2018-06-10T04:16:07.453Z,11.50
2018-06-10T04:17:07.455Z,11.40
2018-06-10T04:18:07.463Z,12.90
2018-06-10T04:19:07.462Z,11.20
2018-06-10T04:20:07.466Z,12.00
2018-06-10T04:21:07.470Z,12.20
2018-06-10T04:22:07.473Z,13.00
2018-06-10T04:23:07.479Z,12.70
2018-06-10T04:24:07.481Z,12.70
2018-06-10T04:25:07.484Z,12.00
2018-06-10T04:26:07.488Z,12.50
2018-06-10T04:27:07.492Z,12.60
2018-06-10T04:28:07.498Z,11.80
2018-06-10T04:29:07.497Z,10.40
2018-06-10T04:30:07.503Z,11.60
2018-06-10T04:31:07.508Z,12.30
2018-06-10T04:32:07.511Z,11.10
2018-06-10T04:33:07.514Z,12.20
2018-06-10T04:34:07.517Z,11.60
2018-06-10T04:35:07.521Z,12.20
2018-06-10T04:36:07.526Z,10.20
2018-06-10T04:37:07.528Z,11.40
2018-06-10T04:38:07.532Z,10.60
2018-06-10T04:39:07.537Z,10.40
2018-06-10T04:40:07.540Z,11.80
2018-06-10T04:41:07.543Z,12.40
2018-06-10T04:42:07.548Z,11.90
2018-06-10T04:43:07.551Z,12.20
2018-06-10T04:44:07.556Z,11.30
2018-06-10T04:45:07.558Z,10.70
2018-06-10T04:46:07.563Z,11.00
2018-06-10T04:47:07.578Z,11.00
2018-06-10T04:48:07.571Z,11.20
2018-06-10T04:49:07.574Z,11.10
2018-06-10T04:50:07.578Z,10.50
2018-06-10T04:51:07.583Z,11.00
2018-06-10T04:52:07.589Z,10.70
2018-06-10T04:53:07.683Z,11.50
2018-06-10T04:54:07.596Z,11.90
2018-06-10T04:55:07.597Z,11.00
2018-06-10T04:56:07.601Z,10.90
2018-06-10T04:57:07.605Z,11.10
2018-06-10T04:58:07.609Z,10.50
2018-06-10T04:59:07.613Z,10.60
2018-06-10T05:00:07.618Z,11.80
2018-06-10T05:01:07.620Z,11.40
2018-06-10T05:02:07.624Z,12.40
2018-06-10T05:03:07.632Z,10.90
2018-06-10T05:04:07.633Z,10.50
2018-06-10T05:05:07.637Z,11.70
2018-06-10T05:06:07.642Z,13.20
2018-06-10T05:07:07.648Z,12.20
2018-06-10T05:08:07.650Z,11.60
2018-06-10T05:09:07.653Z,10.80
2018-06-10T05:10:07.657Z,11.20
2018-06-10T05:11:07.665Z,9.80
2018-06-10T05:12:07.666Z,11.20
2018-06-10T05:13:07.669Z,10.60
2018-06-10T05:14:07.674Z,11.60
2018-06-10T05:15:07.678Z,10.50
2018-06-10T05:16:07.683Z,11.10
2018-06-10T05:17:07.689Z,10.50
2018-06-10T05:18:07.691Z,10.20
2018-06-10T05:19:07.700Z,11.70
2018-06-10T05:20:07.760Z,11.20
2018-06-10T05:21:07.707Z,11.10
2018-06-10T05:22:07.709Z,10.40
2018-06-10T05:23:07.713Z,11.10
2018-06-10T05:24:07.718Z,10.30
2018-06-10T05:25:07.721Z,11.00
2018-06-10T05:26:07.727Z,11.50
2018-06-10T05:27:07.734Z,10.10
2018-06-10T05:28:07.734Z,9.70
2018-06-10T05:29:07.738Z,11.50
2018-06-10T05:30:07.745Z,10.20
2018-06-10T05:31:07.749Z,10.50
2018-06-10T05:32:07.752Z,9.50
2018-06-10T05:33:07.756Z,11.20
2018-06-10T05:34:07.762Z,9.90
2018-06-10T05:35:07.765Z,9.90
2018-06-10T05:36:07.769Z,10.60
2018-06-10T05:37:07.774Z,10.00
2018-06-10T05:38:07.778Z,10.40
2018-06-10T05:39:07.783Z,10.60
2018-06-10T05:40:07.835Z,10.20
2018-06-10T05:41:07.791Z,10.60
2018-06-10T05:42:07.798Z,10.70
2018-06-10T05:43:07.801Z,8.90
2018-06-10T05:44:07.805Z,9.60
2018-06-10T05:45:07.811Z,10.20
2018-06-10T05:46:07.813Z,10.50
2018-06-10T05:47:07.819Z,9.60
2018-06-10T05:48:07.824Z,9.60
2018-06-10T05:49:07.827Z,11.00
2018-06-10T05:50:07.832Z,9.40
2018-06-10T05:51:07.839Z,10.50
2018-06-10T05:52:07.846Z,9.80
2018-06-10T05:53:07.846Z,9.20
2018-06-10T05:54:07.851Z,10.10
2018-06-10T05:55:07.856Z,9.70
2018-06-10T05:56:07.861Z,9.60
2018-06-10T05:57:07.867Z,9.00
2018-06-10T05:58:07.869Z,9.60
2018-06-10T05:59:07.873Z,9.90
2018-06-10T06:00:07.880Z,8.80
2018-06-10T06:01:07.883Z,9.40
2018-06-10T06:02:07.888Z,9.10
2018-06-10T06:03:07.893Z,8.70
2018-06-10T06:04:07.898Z,10.70
2018-06-10T06:05:07.902Z,9.80
2018-06-10T06:06:07.909Z,9.60
2018-06-10T06:07:07.912Z,9.90
2018-06-10T06:08:07.917Z,10.30
2018-06-10T06:09:07.922Z,9.60
2018-06-10T06:10:07.926Z,8.30
2018-06-10T06:11:07.932Z,9.40
2018-06-10T06:12:07.937Z,8.90
2018-06-10T06:13:07.942Z,9.30
2018-06-10T06:14:07.946Z,8.70
2018-06-10T06:15:07.953Z,9.20
2018-06-10T06:16:07.957Z,9.00
2018-06-10T06:17:07.962Z,8.10
2018-06-10T06:18:07.967Z,8.80
2018-06-10T06:19:07.973Z,8.60
2018-06-10T06:20:07.978Z,8.90
2018-06-10T06:21:07.981Z,8.60
2018-06-10T06:22:07.988Z,8.80
2018-06-10T06:23:07.994Z,9.10
2018-06-10T06:24:08.000Z,8.30
2018-06-10T06:25:08.004Z,8.60
2018-06-10T06:26:08.010Z,8.00
2018-06-10T06:27:08.019Z,7.90
2018-06-10T06:28:08.020Z,9.10
2018-06-10T06:29:08.027Z,7.90
2018-06-10T06:30:08.031Z,8.70
2018-06-10T06:31:08.035Z,8.30
2018-06-10T06:32:08.042Z,8.50
2018-06-10T06:33:08.047Z,8.40
2018-06-10T06:34:08.052Z,7.20
2018-06-10T06:35:08.058Z,7.70
2018-06-10T06:36:08.063Z,7.90
2018-06-10T06:37:08.068Z,7.90
2018-06-10T06:38:08.076Z,8.50
2018-06-10T06:39:08.080Z,8.00
2018-06-10T06:40:08.085Z,7.10
2018-06-10T06:41:08.091Z,7.70
2018-06-10T06:42:08.100Z,7.60
2018-06-10T06:43:08.107Z,8.00
2018-06-10T06:44:08.107Z,9.50
2018-06-10T06:45:08.111Z,8.00
2018-06-10T06:46:08.118Z,8.40
2018-06-10T06:47:08.205Z,7.90
2018-06-10T06:48:08.129Z,8.20
2018-06-10T06:49:08.133Z,7.80
2018-06-10T06:50:08.138Z,8.50
2018-06-10T06:51:08.144Z,7.50
2018-06-10T06:52:08.149Z,7.20
2018-06-10T06:53:08.154Z,7.20
2018-06-10T06:54:08.161Z,7.70
2018-06-10T06:55:08.166Z,8.60
2018-06-10T06:56:08.171Z,7.60
2018-06-10T06:57:08.177Z,7.80
2018-06-10T06:58:08.182Z,7.60
2018-06-10T06:59:08.188Z,7.70
2018-06-10T07:00:08.193Z,7.90
2018-06-10T07:01:08.197Z,7.20
2018-06-10T07:02:08.205Z,7.40
2018-06-10T07:03:08.219Z,7.50
2018-06-10T07:04:08.217Z,7.70
2018-06-10T07:05:08.221Z,7.10
2018-06-10T07:06:08.227Z,7.20
2018-06-10T07:07:08.233Z,9.00
2018-06-10T07:08:08.239Z,6.90
2018-06-10T07:09:08.243Z,6.50
2018-06-10T07:10:08.251Z,7.50
2018-06-10T07:11:08.256Z,6.70
2018-06-10T07:12:08.261Z,6.50
2018-06-10T07:13:08.266Z,6.30
2018-06-10T07:14:08.273Z,6.40
2018-06-10T07:15:08.278Z,6.40
2018-06-10T07:16:08.284Z,5.20
2018-06-10T07:17:08.288Z,6.70
2018-06-10T07:18:08.294Z,6.60
2018-06-10T07:19:08.302Z,6.80
2018-06-10T07:20:08.328Z,6.30
2018-06-10T07:21:08.311Z,6.70
2018-06-10T07:22:08.318Z,7.90
2018-06-10T07:23:08.324Z,7.00
2018-06-10T07:24:08.330Z,6.80
2018-06-10T07:25:08.336Z,7.60
2018-06-10T07:26:08.342Z,7.60
2018-06-10T07:27:08.348Z,6.90
2018-06-10T07:28:08.355Z,7.70
2018-06-10T07:29:08.360Z,7.60
2018-06-10T07:30:08.367Z,7.10
2018-06-10T07:31:08.375Z,6.70
2018-06-10T07:32:08.379Z,7.60
2018-06-10T07:33:08.385Z,8.10
2018-06-10T07:34:08.391Z,8.50
2018-06-10T07:35:08.398Z,7.40
2018-06-10T07:36:08.403Z,8.30
2018-06-10T07:37:08.430Z,8.00
2018-06-10T07:38:08.416Z,8.60
2018-06-10T07:39:08.423Z,7.90
2018-06-10T07:40:08.428Z,9.10
2018-06-10T07:41:08.435Z,8.70
2018-06-10T07:42:08.441Z,9.20
2018-06-10T07:43:08.447Z,9.00
2018-06-10T07:44:08.453Z,10.00
2018-06-10T07:45:08.459Z,9.10
2018-06-10T07:46:08.465Z,8.60
2018-06-10T07:47:08.471Z,9.50
2018-06-10T07:48:08.479Z,9.50
2018-06-10T07:49:08.484Z,9.60
2018-06-10T07:50:08.489Z,9.20
2018-06-10T07:51:08.495Z,9.40
2018-06-10T07:52:08.502Z,9.30
2018-06-10T07:53:08.510Z,9.40
2018-06-10T07:54:08.514Z,10.30
2018-06-10T07:55:08.520Z,8.90
2018-06-10T07:56:08.526Z,9.80
2018-06-10T07:57:08.530Z,8.70
2018-06-10T07:58:08.538Z,9.70
2018-06-10T07:59:08.544Z,11.10
2018-06-10T08:00:08.594Z,9.40
2018-06-10T08:01:08.556Z,10.20
2018-06-10T08:02:08.562Z,10.80
2018-06-10T08:03:08.569Z,9.40
2018-06-10T08:04:08.575Z,10.20
2018-06-10T08:05:08.581Z,8.90
2018-06-10T08:06:08.587Z,9.00
2018-06-10T08:07:08.596Z,10.20
2018-06-10T08:08:08.599Z,10.70
2018-06-10T08:09:08.606Z,8.50
2018-06-10T08:10:08.612Z,9.40
2018-06-10T08:11:08.619Z,9.10
2018-06-10T08:12:08.826Z,8.60
2018-06-10T08:13:08.631Z,8.90
2018-06-10T08:14:08.637Z,9.30
2018-06-10T08:15:08.644Z,8.40
2018-06-10T08:16:08.655Z,9.40
2018-06-10T08:17:08.657Z,8.40
2018-06-10T08:18:08.664Z,8.00
2018-06-10T08:19:08.673Z,8.40
2018-06-10T08:20:08.678Z,8.20
2018-06-10T08:21:08.684Z,8.70
2018-06-10T08:22:08.691Z,8.40
2018-06-10T08:23:08.698Z,8.70
2018-06-10T08:24:08.704Z,8.00
2018-06-10T08:25:08.714Z,7.50
2018-06-10T08:26:08.719Z,7.80
2018-06-10T08:27:08.727Z,7.60
2018-06-10T08:28:08.734Z,7.80
2018-06-10T08:29:08.740Z,8.70
2018-06-10T08:30:08.747Z,8.50
2018-06-10T08:31:08.756Z,8.40
2018-06-10T08:32:08.767Z,8.40
2018-06-10T08:33:08.769Z,8.00
2018-06-10T08:34:08.777Z,8.80
2018-06-10T08:35:08.784Z,7.80
2018-06-10T08:36:08.793Z,8.20
2018-06-10T08:37:08.800Z,9.60
2018-06-10T08:38:08.807Z,9.20
2018-06-10T08:39:08.815Z,8.60
2018-06-10T08:40:08.823Z,8.30
2018-06-10T08:41:08.829Z,9.50
2018-06-10T08:42:08.841Z,8.00
2018-06-10T08:43:08.845Z,10.70
2018-06-10T08:44:08.919Z,10.30
2018-06-10T08:45:08.859Z,9.90
2018-06-10T08:46:08.867Z,10.70
2018-06-10T08:47:08.874Z,9.20
2018-06-10T08:48:08.882Z,9.60
2018-06-10T08:49:08.888Z,9.90
2018-06-10T08:50:08.895Z,10.20
2018-06-10T08:51:08.903Z,8.70
2018-06-10T08:52:08.909Z,9.80
2018-06-10T08:53:08.916Z,9.90
2018-06-10T08:54:08.923Z,9.30
2018-06-10T08:55:08.934Z,9.20
2018-06-10T08:56:08.938Z,9.80
2018-06-10T08:57:08.944Z,9.30
2018-06-10T08:58:08.952Z,9.70
2018-06-10T08:59:08.960Z,9.10
2018-06-10T09:00:08.966Z,10.10
2018-06-10T09:01:08.974Z,9.10
2018-06-10T09:02:08.980Z,8.90
2018-06-10T09:03:08.989Z,10.10
2018-06-10T09:04:08.998Z,10.00
2018-06-10T09:05:09.003Z,9.80
2018-06-10T09:06:09.011Z,8.90
2018-06-10T09:07:09.020Z,9.60
2018-06-10T09:08:09.027Z,9.00
2018-06-10T09:09:09.034Z,8.80
2018-06-10T09:10:09.043Z,9.30
2018-06-10T09:11:09.051Z,10.20
2018-06-10T09:12:09.059Z,9.60
2018-06-10T09:13:09.067Z,9.20
2018-06-10T09:14:09.073Z,9.50
2018-06-10T09:15:09.080Z,9.10
2018-06-10T09:16:09.089Z,8.90
2018-06-10T09:17:09.097Z,9.00
2018-06-10T09:18:09.106Z,10.20
2018-06-10T09:19:09.114Z,8.80
2018-06-10T09:20:09.122Z,8.60
2018-06-10T09:21:09.131Z,9.20
2018-06-10T09:22:09.138Z,10.50
2018-06-10T09:23:09.147Z,9.60
2018-06-10T09:24:09.156Z,9.60
2018-06-10T09:25:09.164Z,10.10
2018-06-10T09:26:09.173Z,9.50
2018-06-10T09:27:09.182Z,9.50
2018-06-10T09:28:09.191Z,9.90
2018-06-10T09:29:09.201Z,10.10
2018-06-10T09:30:09.212Z,9.60
2018-06-10T09:31:09.217Z,10.40
2018-06-10T09:32:09.225Z,10.40
2018-06-10T09:33:09.239Z,9.70
2018-06-10T09:34:09.243Z,10.00
2018-06-10T09:35:09.252Z,9.90
2018-06-10T09:36:09.261Z,10.10
2018-06-10T09:37:09.269Z,11.30
2018-06-10T09:38:09.277Z,9.60
2018-06-10T09:39:09.288Z,9.60
2018-06-10T09:40:09.294Z,10.00
2018-06-10T09:41:09.303Z,9.40
2018-06-10T09:42:09.368Z,10.70
2018-06-10T09:43:09.319Z,10.30
2018-06-10T09:44:09.326Z,9.70
2018-06-10T09:45:09.335Z,10.80
2018-06-10T09:46:09.344Z,10.80
2018-06-10T09:47:09.351Z,10.20
2018-06-10T09:48:09.361Z,9.40
2018-06-10T09:49:09.367Z,10.40
2018-06-10T09:50:09.376Z,9.90
2018-06-10T09:51:09.386Z,9.30
2018-06-10T09:52:09.394Z,9.20
2018-06-10T09:53:09.399Z,10.30
2018-06-10T09:54:09.409Z,9.50
2018-06-10T09:55:09.507Z,9.30
2018-06-10T09:56:09.433Z,9.20
2018-06-10T09:57:09.435Z,9.30
2018-06-10T09:58:09.443Z,8.20
2018-06-10T09:59:09.452Z,7.90
2018-06-10T10:00:09.459Z,7.90
2018-06-10T10:01:09.467Z,8.50
2018-06-10T10:02:09.478Z,9.30
2018-06-10T10:03:09.485Z,10.70
2018-06-10T10:04:09.493Z,11.00
2018-06-10T10:05:09.502Z,9.30
2018-06-10T10:06:09.511Z,10.70
2018-06-10T10:07:09.519Z,9.70
2018-06-10T10:08:09.528Z,11.00
2018-06-10T10:09:09.535Z,11.70
2018-06-10T10:10:09.544Z,10.80
2018-06-10T10:11:09.555Z,11.20
2018-06-10T10:12:09.561Z,11.70
2018-06-10T10:13:09.569Z,11.10
2018-06-10T10:14:09.577Z,12.20
2018-06-10T10:15:09.587Z,11.60
2018-06-10T10:16:09.595Z,12.50
2018-06-10T10:17:09.601Z,11.50
2018-06-10T10:18:09.608Z,13.00
2018-06-10T10:19:09.617Z,12.10
2018-06-10T10:20:09.631Z,12.00
2018-06-10T10:21:09.636Z,12.00
2018-06-10T10:22:09.641Z,13.30
2018-06-10T10:23:09.648Z,12.70
2018-06-10T10:24:09.656Z,11.50
2018-06-10T10:25:09.663Z,11.70
2018-06-10T10:26:09.672Z,12.30
2018-06-10T10:27:09.679Z,12.70
2018-06-10T10:28:09.688Z,13.00
2018-06-10T10:29:09.694Z,12.70
2018-06-10T10:30:09.700Z,12.80
2018-06-10T10:31:09.712Z,11.80
2018-06-10T10:32:09.718Z,13.40
2018-06-10T10:33:09.724Z,12.70
2018-06-10T10:34:09.732Z,11.90
2018-06-10T10:35:09.739Z,12.90
2018-06-10T10:36:09.746Z,13.30
2018-06-10T10:37:09.754Z,12.60
2018-06-10T10:38:09.761Z,12.30
2018-06-10T10:39:09.769Z,12.20
2018-06-10T10:40:09.777Z,11.90
2018-06-10T10:41:09.783Z,13.20
2018-06-10T10:42:09.790Z,12.40
2018-06-10T10:43:09.798Z,12.40
2018-06-10T10:44:09.807Z,12.80
2018-06-10T10:45:09.814Z,13.00
2018-06-10T10:46:09.822Z,12.40
2018-06-10T10:47:09.830Z,13.00
2018-06-10T10:48:09.837Z,12.50
2018-06-10T10:49:09.847Z,11.90
2018-06-10T10:50:09.853Z,12.50
2018-06-10T10:51:09.860Z,12.90
2018-06-10T10:52:09.871Z,12.80
2018-06-10T10:53:09.875Z,11.50
2018-06-10T10:54:09.882Z,11.80
2018-06-10T10:55:09.891Z,11.80
2018-06-10T10:56:09.923Z,12.30
2018-06-10T10:57:09.905Z,12.20
2018-06-10T10:58:09.913Z,12.80
2018-06-10T10:59:09.922Z,14.40
2018-06-10T11:00:09.929Z,14.10
2018-06-10T11:01:09.938Z,14.30
2018-06-10T11:02:09.944Z,13.40
2018-06-10T11:03:09.953Z,13.70
2018-06-10T11:04:09.959Z,11.90
2018-06-10T11:05:09.966Z,13.50
2018-06-10T11:06:09.974Z,14.70
2018-06-10T11:07:09.981Z,12.50
2018-06-10T11:08:10.019Z,13.80
2018-06-10T11:09:09.996Z,13.60
2018-06-10T11:10:10.005Z,12.80
2018-06-10T11:11:10.013Z,12.00
2018-06-10T11:12:10.023Z,12.20
2018-06-10T11:13:10.027Z,11.80
2018-06-10T11:14:10.037Z,12.20
2018-06-10T11:15:10.044Z,11.80
2018-06-10T11:16:10.052Z,11.30
2018-06-10T11:17:10.059Z,11.50
2018-06-10T11:18:10.067Z,11.70
2018-06-10T11:19:10.074Z,10.80
2018-06-10T11:20:10.083Z,11.90
2018-06-10T11:21:10.091Z,13.00
2018-06-10T11:22:10.100Z,11.10
2018-06-10T11:23:10.111Z,12.30
2018-06-10T11:24:10.120Z,10.90
2018-06-10T11:25:10.125Z,11.00
2018-06-10T11:26:10.134Z,10.70
2018-06-10T11:27:10.221Z,11.00
2018-06-10T11:28:10.152Z,10.00
2018-06-10T11:29:10.160Z,11.10
2018-06-10T11:30:10.172Z,10.40
2018-06-10T11:31:10.177Z,10.30
2018-06-10T11:32:10.187Z,11.30
2018-06-10T11:33:10.195Z,11.50
2018-06-10T11:34:10.204Z,10.20
2018-06-10T11:35:10.215Z,11.30
2018-06-10T11:36:10.223Z,10.10
2018-06-10T11:37:10.235Z,10.40
2018-06-10T11:38:10.241Z,10.50
2018-06-10T11:39:10.251Z,9.70
2018-06-10T11:40:10.260Z,10.10
2018-06-10T11:41:10.268Z,10.10
2018-06-10T11:42:10.289Z,10.20
2018-06-10T11:43:10.286Z,10.50
2018-06-10T11:44:10.296Z,10.60
2018-06-10T11:45:10.304Z,10.10
2018-06-10T11:46:10.314Z,11.00
2018-06-10T11:47:10.325Z,10.90
2018-06-10T11:48:10.332Z,10.50
2018-06-10T11:49:10.340Z,10.50
2018-06-10T11:50:10.350Z,10.10
2018-06-10T11:51:10.359Z,9.90
2018-06-10T11:52:10.395Z,9.90
2018-06-10T11:53:10.379Z,11.30
2018-06-10T11:54:10.387Z,8.70
2018-06-10T11:55:10.397Z,10.50
2018-06-10T11:56:10.407Z,9.70
2018-06-10T11:57:10.415Z,10.30
2018-06-10T11:58:10.464Z,9.60
2018-06-10T11:59:10.434Z,9.70
2018-06-10T12:00:10.445Z,9.60
2018-06-10T12:01:10.454Z,10.70
2018-06-10T12:02:10.469Z,9.30
2018-06-10T12:03:10.473Z,9.50
2018-06-10T12:04:10.483Z,8.70
2018-06-10T12:05:10.503Z,9.70
2018-06-10T12:06:10.503Z,9.60
2018-06-10T12:07:10.512Z,8.50
2018-06-10T12:08:10.522Z,9.20
2018-06-10T12:09:10.530Z,9.30
2018-06-10T12:10:10.541Z,9.00
2018-06-10T12:11:10.551Z,9.80
2018-06-10T12:12:10.560Z,8.60
2018-06-10T12:13:10.569Z,9.50
2018-06-10T12:14:10.579Z,8.80
2018-06-10T12:15:10.590Z,10.00
2018-06-10T12:16:10.600Z,8.50
2018-06-10T12:17:10.609Z,9.60
2018-06-10T12:18:10.619Z,8.40
2018-06-10T12:19:10.628Z,9.40
2018-06-10T12:20:10.638Z,9.10
2018-06-10T12:21:10.648Z,8.30
2018-06-10T12:22:10.658Z,9.40
2018-06-10T12:23:10.667Z,8.70
2018-06-10T12:24:10.678Z,8.60
2018-06-10T12:25:10.686Z,9.60
2018-06-10T12:26:10.707Z,9.60
2018-06-10T12:27:10.707Z,10.10
2018-06-10T12:28:10.716Z,9.20
2018-06-10T12:29:10.724Z,9.00
2018-06-10T12:30:10.734Z,10.10
2018-06-10T12:31:10.744Z,9.30
2018-06-10T12:32:10.752Z,9.30
2018-06-10T12:33:10.762Z,10.80
2018-06-10T12:34:10.774Z,9.70
2018-06-10T12:35:10.883Z,9.40
2018-06-10T12:36:10.791Z,8.70
2018-06-10T12:37:10.800Z,8.70
2018-06-10T12:38:10.809Z,10.30
2018-06-10T12:39:10.819Z,8.90
2018-06-10T12:40:10.829Z,9.20
2018-06-10T12:41:10.838Z,10.40
2018-06-10T12:42:10.847Z,10.00
2018-06-10T12:43:10.860Z,9.50
2018-06-10T12:44:10.867Z,9.90
2018-06-10T12:45:10.874Z,9.00
2018-06-10T12:46:10.884Z,9.10
2018-06-10T12:47:10.894Z,9.10
2018-06-10T12:48:10.904Z,9.00
2018-06-10T12:49:10.927Z,7.90
2018-06-10T12:50:10.925Z,8.80
2018-06-10T12:51:10.931Z,9.40
2018-06-10T12:52:10.940Z,8.50
2018-06-10T12:53:10.949Z,8.80
2018-06-10T12:54:10.960Z,8.20
2018-06-10T12:55:10.970Z,9.00
2018-06-10T12:56:10.981Z,7.90
2018-06-10T12:57:10.990Z,8.60
2018-06-10T12:58:10.999Z,9.00
2018-06-10T12:59:11.010Z,9.00
2018-06-10T13:00:11.021Z,8.60
2018-06-10T13:01:11.028Z,9.10
2018-06-10T13:02:11.039Z,7.80
2018-06-10T13:03:11.049Z,9.10
2018-06-10T13:04:11.060Z,8.50
2018-06-10T13:05:11.069Z,8.30